Time;durP1;ratioP1;P1;durP2;ratioP2;P2;SDS_P1;SDS_P2;PMS_P1;PMS_P2;Temp;Humidity;BMP_temperature;BMP_pressure;BME280_temperature;BME280_humidity;BME280_pressure;Samples;Min_cycle;Max_cycle;Signal;HPM_P1;HPM_P2
2023/10/06 00:01:31;;;;;;;5.80;3.78;;;;;21.50;101472.00;;;;2541856;23;20297;-56
2023/10/06 00:02:32;;;;;;;4.22;3.08;;;;;21.50;101458.00;;;;2526348;23;20205;-57
2023/10/06 00:03:32;;;;;;;5.87;3.13;;;;;21.40;101464.00;;;;2539544;23;20225;-57
2023/10/06 00:04:38;;;;;;;6.40;3.23;;;;;21.40;101466.00;;;;2540958;23;20204;-56
2023/10/06 00:05:38;;;;;;;5.18;3.17;;;;;21.40;101466.00;;;;2541812;23;20566;-57
2023/10/06 00:06:42;;;;;;;5.53;3.67;;;;;21.40;101463.00;;;;2540846;23;20194;-56
2023/10/06 00:07:42;;;;;;;3.88;3.10;;;;;21.40;101463.00;;;;2527281;23;20284;-57
2023/10/06 00:08:51;;;;;;;5.80;3.13;;;;;21.40;101461.00;;;;2541053;23;20206;-57
2023/10/06 00:09:53;;;;;;;5.05;3.00;;;;;21.50;101460.00;;;;2541396;23;20270;-57
2023/10/06 00:10:55;;;;;;;4.00;2.58;;;;;21.40;101485.00;;;;2540818;23;20202;-55
2023/10/06 00:11:55;;;;;;;4.82;3.10;;;;;21.40;101456.00;;;;2528417;23;20202;-55
2023/10/06 00:12:58;;;;;;;4.80;2.97;;;;;21.40;101472.00;;;;2552475;23;20280;-55
2023/10/06 00:14:07;;;;;;;5.15;2.92;;;;;21.50;101466.00;;;;2550691;23;20204;-57
2023/10/06 00:15:11;;;;;;;5.20;2.90;;;;;21.50;101459.00;;;;2541350;23;20788;-57
2023/10/06 00:16:12;;;;;;;2.85;2.53;;;;;21.40;101464.00;;;;2549442;23;20220;-56
2023/10/06 00:17:17;;;;;;;5.37;3.30;;;;;21.40;101461.00;;;;2539076;23;20590;-57
2023/10/06 00:18:23;;;;;;;4.25;2.60;;;;;21.40;101460.00;;;;2552931;23;20440;-56
2023/10/06 00:19:27;;;;;;;4.25;2.40;;;;;21.40;101470.00;;;;2553637;23;20208;-57
2023/10/06 00:20:39;;;;;;;5.35;3.20;;;;;21.40;101459.00;;;;2553205;23;20220;-56
2023/10/06 00:21:46;;;;;;;3.97;2.88;;;;;21.40;101464.00;;;;2553358;23;20197;-57
2023/10/06 00:22:47;;;;;;;4.63;2.72;;;;;21.50;101457.00;;;;2537595;23;20194;-57
2023/10/06 00:23:47;;;;;;;4.17;2.63;;;;;21.40;101454.00;;;;2553722;23;20577;-56
2023/10/06 00:24:50;;;;;;;4.07;3.00;;;;;21.40;101453.00;;;;2553850;23;20204;-57
2023/10/06 00:25:54;;;;;;;4.35;2.40;;;;;21.40;101451.00;;;;2553336;23;20197;-56
2023/10/06 00:26:55;;;;;;;4.50;2.40;;;;;21.50;101454.00;;;;2526396;23;20202;-57
2023/10/06 00:27:55;;;;;;;3.97;2.70;;;;;21.40;101447.00;;;;2541134;23;20206;-57
2023/10/06 00:28:56;;;;;;;4.70;2.77;;;;;21.40;101454.00;;;;2553777;23;20269;-57
2023/10/06 00:29:56;;;;;;;5.07;2.60;;;;;21.40;101463.00;;;;2553102;23;20256;-57
2023/10/06 00:30:57;;;;;;;3.70;2.30;;;;;21.40;101460.00;;;;2553538;23;20207;-56
2023/10/06 00:32:21;;;;;;;4.80;2.60;;;;;21.40;101459.00;;;;2538582;23;20281;-56
2023/10/06 00:33:21;;;;;;;4.25;3.10;;;;;21.40;101456.00;;;;2540792;23;20194;-56
2023/10/06 00:34:22;;;;;;;6.20;2.93;;;;;21.50;101463.00;;;;2536227;23;20510;-56
2023/10/06 00:35:30;;;;;;;4.80;3.10;;;;;21.40;101464.00;;;;2532322;23;20531;-55
2023/10/06 00:36:34;;;;;;;3.17;2.22;;;;;21.40;101465.00;;;;2534451;23;20273;-57
2023/10/06 00:37:40;;;;;;;4.10;2.63;;;;;21.40;101465.00;;;;2515852;23;20206;-56
2023/10/06 00:38:50;;;;;;;4.43;2.42;;;;;21.40;101465.00;;;;2546503;23;20193;-57
2023/10/06 00:39:54;;;;;;;4.53;2.75;;;;;21.40;101462.00;;;;2540643;23;20210;-56
2023/10/06 00:40:55;;;;;;;2.60;2.15;;;;;21.40;101462.00;;;;2541100;23;20206;-56
2023/10/06 00:42:03;;;;;;;3.33;2.67;;;;;21.40;101466.00;;;;2526507;23;20198;-56
2023/10/06 00:43:08;;;;;;;4.07;2.97;;;;;21.40;101462.00;;;;2540007;23;20206;-53
2023/10/06 00:44:11;;;;;;;3.00;2.10;;;;;21.40;101461.00;;;;2540122;23;20240;-57
2023/10/06 00:45:11;;;;;;;6.75;2.70;;;;;21.40;101459.00;;;;2534417;23;20200;-57
2023/10/06 00:46:16;;;;;;;4.10;2.43;;;;;21.40;101455.00;;;;2540131;23;20194;-54
2023/10/06 00:47:17;;;;;;;4.85;2.92;;;;;21.40;101459.00;;;;2526189;23;20194;-57
2023/10/06 00:48:17;;;;;;;5.70;2.37;;;;;21.40;101459.00;;;;2541406;23;20186;-55
2023/10/06 00:49:18;;;;;;;5.57;2.60;;;;;21.40;101450.00;;;;2540857;23;20194;-56
2023/10/06 00:50:22;;;;;;;3.70;2.67;;;;;21.40;101459.00;;;;2540621;23;20201;-53
2023/10/06 00:51:25;;;;;;;3.55;2.70;;;;;21.40;101461.00;;;;2528723;23;20191;-54
2023/10/06 00:52:25;;;;;;;3.85;2.55;;;;;21.40;101452.00;;;;2525578;23;20195;-57
2023/10/06 00:53:31;;;;;;;3.40;2.80;;;;;21.40;101454.00;;;;2527874;23;20609;-58
2023/10/06 00:54:32;;;;;;;4.57;2.70;;;;;21.40;101454.00;;;;2529693;23;20202;-57
2023/10/06 00:55:32;;;;;;;4.93;2.97;;;;;21.40;101448.00;;;;2541152;23;20273;-54
2023/10/06 00:56:33;;;;;;;3.90;2.70;;;;;21.40;101453.00;;;;2541705;23;20449;-54
2023/10/06 00:57:33;;;;;;;3.27;2.20;;;;;21.40;101452.00;;;;2527651;23;20678;-53
2023/10/06 00:58:34;;;;;;;3.50;2.53;;;;;21.40;101452.00;;;;2540836;23;20202;-54
2023/10/06 00:59:36;;;;;;;3.83;2.27;;;;;21.40;101445.00;;;;2541258;23;20268;-55
2023/10/06 01:00:37;;;;;;;5.20;2.90;;;;;21.40;101452.00;;;;2540883;23;20253;-57
2023/10/06 01:01:41;;;;;;;5.03;2.53;;;;;21.40;101451.00;;;;2539824;23;20236;-57
2023/10/06 01:02:43;;;;;;;4.07;2.53;;;;;21.40;101448.00;;;;2524484;23;20297;-56
2023/10/06 01:04:00;;;;;;;3.78;2.45;;;;;21.40;101267.00;;;;2541395;23;20237;-53
2023/10/06 01:05:00;;;;;;;5.28;2.67;;;;;21.40;101453.00;;;;2540164;23;20952;-57
2023/10/06 01:06:07;;;;;;;3.13;2.57;;;;;21.40;101443.00;;;;2530873;23;20226;-54
2023/10/06 01:07:08;;;;;;;3.28;2.30;;;;;21.40;101446.00;;;;2514461;23;20191;-55
2023/10/06 01:08:11;;;;;;;4.50;2.77;;;;;21.40;101444.00;;;;2540157;23;20259;-57
2023/10/06 01:10:27;;;;;;;4.57;2.80;;;;;21.40;101438.00;;;;2540780;23;20266;-56
2023/10/06 01:11:27;;;;;;;4.15;2.60;;;;;21.40;101438.00;;;;2541474;23;20190;-54
2023/10/06 01:12:31;;;;;;;3.20;2.27;;;;;21.40;101443.00;;;;2525994;23;20251;-56
2023/10/06 01:13:31;;;;;;;4.70;2.13;;;;;21.40;101459.00;;;;2541553;23;20441;-54
2023/10/06 01:14:34;;;;;;;4.10;2.60;;;;;21.40;101433.00;;;;2540207;23;20637;-55
2023/10/06 01:15:35;;;;;;;6.30;3.05;;;;;21.40;101404.00;;;;2541002;23;20284;-56
2023/10/06 01:16:35;;;;;;;3.50;2.33;;;;;21.40;101428.00;;;;2527917;23;20299;-55
2023/10/06 01:17:35;;;;;;;4.13;2.97;;;;;21.40;101421.00;;;;2513635;23;20195;-56
2023/10/06 01:18:36;;;;;;;3.83;2.67;;;;;21.40;101423.00;;;;2541340;23;20194;-54
2023/10/06 01:19:47;;;;;;;4.88;2.65;;;;;21.40;101414.00;;;;2540189;23;20198;-55
2023/10/06 01:20:48;;;;;;;4.65;2.38;;;;;21.40;101415.00;;;;2541054;23;20213;-56
2023/10/06 01:21:48;;;;;;;2.72;2.20;;;;;21.40;101416.00;;;;2535654;23;20646;-59
2023/10/06 01:22:55;;;;;;;4.57;2.20;;;;;21.40;101418.00;;;;2533557;23;20200;-56
2023/10/06 01:23:58;;;;;;;3.80;2.50;;;;;21.40;101422.00;;;;2540879;23;20824;-57
2023/10/06 01:24:58;;;;;;;5.25;2.63;;;;;21.40;101415.00;;;;2540811;23;20205;-54
2023/10/06 01:26:00;;;;;;;5.90;2.67;;;;;21.40;101413.00;;;;2540600;23;20664;-56
2023/10/06 01:27:05;;;;;;;4.28;3.40;;;;;21.40;101415.00;;;;2526765;23;20958;-54
2023/10/06 01:28:12;;;;;;;3.38;1.85;;;;;21.40;101412.00;;;;2540502;23;20202;-56
2023/10/06 01:29:15;;;;;;;3.97;2.30;;;;;21.40;101463.00;;;;2534776;23;20225;-57
2023/10/06 01:31:19;;;;;;;3.83;2.60;;;;;21.40;101411.00;;;;2540526;23;20209;-55
2023/10/06 01:32:19;;;;;;;3.65;2.42;;;;;21.40;101405.00;;;;2532570;23;20239;-57
2023/10/06 01:33:20;;;;;;;4.73;2.43;;;;;21.40;101418.00;;;;2552119;23;20208;-56
2023/10/06 01:34:20;;;;;;;3.40;2.33;;;;;21.30;101413.00;;;;2547058;23;20235;-56
2023/10/06 01:35:23;;;;;;;3.93;2.70;;;;;21.40;101405.00;;;;2540591;23;20767;-54
2023/10/06 01:36:24;;;;;;;3.42;2.30;;;;;21.40;101406.00;;;;2539901;23;20194;-56
2023/10/06 01:37:25;;;;;;;5.28;2.40;;;;;21.40;101404.00;;;;2527064;23;20202;-54
2023/10/06 01:38:26;;;;;;;3.90;2.50;;;;;21.40;101409.00;;;;2540497;23;20641;-57
2023/10/06 01:39:31;;;;;;;3.50;2.37;;;;;21.40;101406.00;;;;2540931;23;20277;-57
2023/10/06 01:41:34;;;;;;;4.60;2.67;;;;;21.40;101410.00;;;;2541536;23;20624;-56
2023/10/06 01:42:35;;;;;;;2.70;2.35;;;;;21.40;101172.00;;;;2526348;23;20197;-53
2023/10/06 01:43:35;;;;;;;3.70;2.70;;;;;21.40;101409.00;;;;2540911;23;20629;-53
2023/10/06 01:44:35;;;;;;;4.03;3.00;;;;;21.40;101411.00;;;;2541303;23;20194;-55
2023/10/06 01:45:43;;;;;;;4.20;2.60;;;;;21.40;101413.00;;;;2540510;23;20194;-57
2023/10/06 01:46:53;;;;;;;2.92;2.25;;;;;21.40;101420.00;;;;2526218;23;20522;-56
2023/10/06 01:48:22;;;;;;;3.70;2.22;;;;;21.40;101403.00;;;;2541446;23;20198;-54
2023/10/06 01:49:17;;;;;;;3.60;2.50;;;;;21.40;101409.00;;;;2552342;23;20193;-58
2023/10/06 01:50:17;;;;;;;4.33;2.30;;;;;21.40;101434.00;;;;2552528;23;20378;-53
2023/10/06 01:51:19;;;;;;;3.70;2.70;;;;;21.30;101417.00;;;;2553153;23;20435;-56
2023/10/06 01:52:19;;;;;;;3.28;2.20;;;;;20.50;101408.00;;;;2537670;23;20875;-54
2023/10/06 01:53:20;;;;;;;3.13;2.17;;;;;21.40;101410.00;;;;2552376;23;20193;-54
2023/10/06 01:54:25;;;;;;;3.83;2.60;;;;;21.40;101408.00;;;;2553289;23;20322;-54
2023/10/06 01:55:25;;;;;;;3.30;2.35;;;;;21.40;101342.00;;;;2552485;23;20194;-56
2023/10/06 01:56:26;;;;;;;3.80;2.43;;;;;21.30;101400.00;;;;2553295;23;20539;-53
2023/10/06 01:57:26;;;;;;;3.00;2.43;;;;;21.30;101399.00;;;;2538522;23;20199;-56
2023/10/06 01:58:27;;;;;;;2.70;2.00;;;;;21.30;101405.00;;;;2553485;23;20193;-56
2023/10/06 01:59:28;;;;;;;4.17;2.40;;;;;21.30;101408.00;;;;2553088;23;20252;-57
2023/10/06 02:00:31;;;;;;;3.90;2.27;;;;;21.40;101402.00;;;;2540960;23;20213;-55
2023/10/06 02:01:32;;;;;;;2.70;2.10;;;;;21.30;101409.00;;;;2541156;23;20277;-58
2023/10/06 02:02:33;;;;;;;3.45;2.40;;;;;21.40;101400.00;;;;2526452;23;20195;-57
2023/10/06 02:03:38;;;;;;;4.70;2.30;;;;;21.30;101400.00;;;;2541277;23;20225;-57
2023/10/06 02:04:41;;;;;;;3.28;2.40;;;;;21.40;101397.00;;;;2554036;23;20196;-55
2023/10/06 02:05:41;;;;;;;4.05;2.35;;;;;21.40;101391.00;;;;2554150;23;20209;-57
2023/10/06 02:06:41;;;;;;;5.50;2.40;;;;;21.40;101395.00;;;;2553151;23;20201;-61
2023/10/06 02:07:44;;;;;;;4.40;2.50;;;;;21.40;101401.00;;;;2539155;23;20197;-58
2023/10/06 02:08:50;;;;;;;5.25;2.28;;;;;21.30;101394.00;;;;2553498;23;20205;-54
2023/10/06 02:09:50;;;;;;;4.28;1.90;;;;;21.30;101462.00;;;;2541108;23;20202;-56
2023/10/06 02:10:51;;;;;;;3.80;2.20;;;;;21.30;101394.00;;;;2529683;23;20603;-55
2023/10/06 02:11:53;;;;;;;3.40;2.50;;;;;21.30;101393.00;;;;2526644;23;20538;-56
2023/10/06 02:12:55;;;;;;;4.70;2.47;;;;;21.30;101390.00;;;;2553974;23;20200;-57
2023/10/06 02:13:55;;;;;;;3.25;2.47;;;;;21.30;101367.00;;;;2554216;23;20213;-56
2023/10/06 02:14:56;;;;;;;4.30;2.43;;;;;21.30;101378.00;;;;2554693;23;20204;-56
2023/10/06 02:15:58;;;;;;;4.90;2.40;;;;;21.30;101415.00;;;;2551576;23;20201;-57
2023/10/06 02:17:04;;;;;;;3.42;2.30;;;;;21.30;101382.00;;;;2540189;23;20895;-57
2023/10/06 02:18:12;;;;;;;3.13;2.20;;;;;21.30;101379.00;;;;2554437;23;20721;-55
2023/10/06 02:19:16;;;;;;;3.60;2.97;;;;;21.30;101380.00;;;;2546112;23;20264;-57
2023/10/06 02:21:28;;;;;;;4.15;2.45;;;;;21.30;101379.00;;;;2553969;23;20197;-55
2023/10/06 02:22:29;;;;;;;2.45;1.63;;;;;21.30;101391.00;;;;2539286;23;20193;-57
2023/10/06 02:23:30;;;;;;;3.80;2.87;;;;;21.30;101388.00;;;;2540952;23;20677;-56
2023/10/06 02:24:30;;;;;;;3.60;2.37;;;;;21.30;101385.00;;;;2541374;23;20201;-57
2023/10/06 02:25:31;;;;;;;4.17;2.80;;;;;21.30;101383.00;;;;2541034;23;20237;-57
2023/10/06 02:26:36;;;;;;;4.32;2.20;;;;;21.30;101389.00;;;;2541256;23;20202;-54
2023/10/06 02:27:46;;;;;;;4.47;2.30;;;;;21.30;101340.00;;;;2537665;23;20197;-56
2023/10/06 02:28:49;;;;;;;3.90;2.10;;;;;21.30;101382.00;;;;2553302;23;20193;-56
2023/10/06 02:29:50;;;;;;;4.32;2.90;;;;;21.30;101382.00;;;;2553666;23;20204;-55
2023/10/06 02:30:53;;;;;;;4.50;2.20;;;;;21.30;101392.00;;;;2540874;23;20611;-55
2023/10/06 02:32:00;;;;;;;3.30;2.22;;;;;21.30;101389.00;;;;2527442;23;20198;-55
2023/10/06 02:33:01;;;;;;;4.47;2.50;;;;;21.30;101378.00;;;;2553489;23;20263;-57
2023/10/06 02:34:02;;;;;;;3.33;2.10;;;;;21.30;101387.00;;;;2554047;23;20640;-55
2023/10/06 02:35:03;;;;;;;2.90;2.20;;;;;21.30;101385.00;;;;2553930;23;20707;-56
2023/10/06 02:36:21;;;;;;;4.22;2.58;;;;;21.30;101376.00;;;;2540297;23;20434;-57
2023/10/06 02:37:25;;;;;;;2.75;2.30;;;;;21.30;101386.00;;;;2521651;23;20589;-57
2023/10/06 02:38:38;;;;;;;4.40;2.30;;;;;21.30;101378.00;;;;2541842;23;20201;-57
2023/10/06 02:39:43;;;;;;;3.50;2.10;;;;;21.30;101375.00;;;;2541627;23;20217;-56
2023/10/06 02:40:47;;;;;;;2.90;1.92;;;;;21.30;101384.00;;;;2540986;23;20198;-57
2023/10/06 02:41:49;;;;;;;4.18;2.25;;;;;21.30;101388.00;;;;2540928;23;20711;-56
2023/10/06 02:42:52;;;;;;;7.97;2.30;;;;;21.30;101388.00;;;;2533499;23;20232;-57
2023/10/06 02:43:53;;;;;;;4.85;2.85;;;;;20.70;101382.00;;;;2541616;23;20216;-57
2023/10/06 02:44:54;;;;;;;4.20;2.30;;;;;21.30;101390.00;;;;2541736;23;20562;-55
2023/10/06 02:46:03;;;;;;;3.80;1.90;;;;;21.30;101394.00;;;;2542019;23;20615;-55
2023/10/06 02:47:11;;;;;;;2.88;2.03;;;;;21.30;101387.00;;;;2527321;23;20245;-56
2023/10/06 02:48:14;;;;;;;4.13;2.20;;;;;21.30;101393.00;;;;2541952;23;20198;-57
2023/10/06 02:49:23;;;;;;;3.08;2.25;;;;;21.30;101388.00;;;;2553330;23;20196;-55
2023/10/06 02:50:24;;;;;;;4.32;2.22;;;;;21.30;101385.00;;;;2554127;23;20194;-56
2023/10/06 02:51:32;;;;;;;4.60;2.23;;;;;21.30;101362.00;;;;2554090;23;20213;-56
2023/10/06 02:52:38;;;;;;;4.05;2.53;;;;;21.30;101441.00;;;;2526245;23;20189;-56
2023/10/06 02:53:39;;;;;;;3.28;2.30;;;;;21.30;101407.00;;;;2541028;23;20442;-56
2023/10/06 02:55:06;;;;;;;4.40;2.63;;;;;21.30;101391.00;;;;2541841;23;20271;-54
2023/10/06 02:56:16;;;;;;;3.10;2.00;;;;;21.30;101392.00;;;;2541478;23;20206;-57
2023/10/06 02:57:20;;;;;;;4.63;2.35;;;;;21.30;101388.00;;;;2527594;23;20197;-56
2023/10/06 02:58:27;;;;;;;3.42;2.25;;;;;21.30;101392.00;;;;2541498;23;20194;-56
2023/10/06 02:59:34;;;;;;;4.13;2.20;;;;;21.30;101398.00;;;;2541670;23;20312;-55
2023/10/06 03:00:36;;;;;;;4.65;2.30;;;;;21.30;101378.00;;;;2541777;23;20198;-56
2023/10/06 03:01:38;;;;;;;4.38;2.08;;;;;21.30;101381.00;;;;2541543;23;20194;-57
2023/10/06 03:02:40;;;;;;;3.22;2.17;;;;;21.30;101380.00;;;;2527572;23;20187;-56
2023/10/06 03:03:40;;;;;;;5.90;2.78;;;;;21.30;101384.00;;;;2541476;23;20645;-57
2023/10/06 03:04:43;;;;;;;3.17;2.20;;;;;21.30;101377.00;;;;2541857;23;20221;-55
2023/10/06 03:05:49;;;;;;;4.40;2.45;;;;;21.30;101351.00;;;;2541048;23;20213;-55
2023/10/06 03:06:53;;;;;;;2.72;2.17;;;;;21.30;101388.00;;;;2529635;23;20218;-55
2023/10/06 03:07:53;;;;;;;3.15;2.20;;;;;21.30;101378.00;;;;2541091;23;20201;-55
2023/10/06 03:08:54;;;;;;;4.23;2.00;;;;;21.30;101376.00;;;;2541108;23;20244;-56
2023/10/06 03:09:55;;;;;;;5.33;2.57;;;;;21.30;101391.00;;;;2541822;23;20198;-57
2023/10/06 03:10:55;;;;;;;2.67;2.07;;;;;21.30;101387.00;;;;2540965;23;20505;-57
2023/10/06 03:11:59;;;;;;;4.30;2.43;;;;;21.30;101403.00;;;;2526419;23;20233;-54
2023/10/06 03:13:03;;;;;;;3.38;2.40;;;;;21.30;101386.00;;;;2539977;23;20249;-57
2023/10/06 03:14:07;;;;;;;2.20;1.80;;;;;21.30;101378.00;;;;2541939;23;20199;-55
2023/10/06 03:15:27;;;;;;;3.38;2.25;;;;;21.30;101379.00;;;;2541560;23;21112;-56
2023/10/06 03:16:28;;;;;;;3.67;1.95;;;;;21.30;101374.00;;;;2541766;23;20203;-57
2023/10/06 03:17:29;;;;;;;4.30;2.20;;;;;21.30;101367.00;;;;2527413;23;20231;-57
2023/10/06 03:18:30;;;;;;;4.90;2.65;;;;;21.30;101371.00;;;;2541872;23;20202;-57
2023/10/06 03:19:32;;;;;;;4.57;2.37;;;;;21.30;101384.00;;;;2541528;23;20206;-56
2023/10/06 03:20:48;;;;;;;3.35;2.35;;;;;21.30;101333.00;;;;2540886;23;20489;-56
2023/10/06 03:21:48;;;;;;;4.05;2.38;;;;;21.30;101370.00;;;;2524266;23;20273;-60
2023/10/06 03:22:49;;;;;;;3.80;2.40;;;;;21.30;101382.00;;;;2532818;23;20201;-56
2023/10/06 03:23:57;;;;;;;3.70;2.50;;;;;21.30;101376.00;;;;2541942;23;20222;-57
2023/10/06 03:24:58;;;;;;;3.88;2.50;;;;;21.30;101369.00;;;;2541213;23;20194;-56
2023/10/06 03:26:02;;;;;;;2.40;2.00;;;;;21.30;101383.00;;;;2541785;23;20209;-57
2023/10/06 03:27:07;;;;;;;3.20;2.00;;;;;21.30;101383.00;;;;2526374;23;20426;-57
2023/10/06 03:28:10;;;;;;;3.30;2.17;;;;;21.20;101376.00;;;;2540783;23;20711;-57
2023/10/06 03:29:19;;;;;;;3.38;2.33;;;;;21.30;101383.00;;;;2540956;23;20194;-55
2023/10/06 03:30:33;;;;;;;3.00;2.30;;;;;21.20;101377.00;;;;2541692;23;20194;-57
2023/10/06 03:31:45;;;;;;;4.05;2.15;;;;;21.30;101383.00;;;;2540884;23;20197;-57
2023/10/06 03:32:49;;;;;;;3.92;2.50;;;;;21.30;101389.00;;;;2526114;23;20657;-57
2023/10/06 03:33:50;;;;;;;3.63;2.20;;;;;21.20;101383.00;;;;2541796;23;20214;-54
2023/10/06 03:34:51;;;;;;;3.20;1.88;;;;;21.20;101385.00;;;;2542153;23;20198;-56
2023/10/06 03:35:54;;;;;;;4.27;2.43;;;;;21.20;101382.00;;;;2542031;23;20198;-55
2023/10/06 03:36:56;;;;;;;3.88;2.20;;;;;21.30;101378.00;;;;2514097;23;20740;-56
2023/10/06 03:38:13;;;;;;;3.75;2.17;;;;;21.30;101384.00;;;;2529986;23;20199;-57
2023/10/06 03:39:21;;;;;;;3.50;2.30;;;;;21.30;101380.00;;;;2529180;23;20266;-58
2023/10/06 03:40:30;;;;;;;4.10;2.55;;;;;21.30;101387.00;;;;2541803;23;20269;-55
2023/10/06 03:41:32;;;;;;;2.97;2.08;;;;;21.20;101387.00;;;;2541134;23;20201;-58
2023/10/06 03:42:37;;;;;;;3.15;1.98;;;;;21.30;101383.00;;;;2526242;23;20202;-56
2023/10/06 03:44:45;;;;;;;3.75;2.50;;;;;21.30;101384.00;;;;2541492;23;20206;-55
2023/10/06 03:45:47;;;;;;;4.00;2.20;;;;;21.20;101367.00;;;;2541488;23;20594;-57
2023/10/06 03:46:48;;;;;;;3.40;2.05;;;;;21.20;101379.00;;;;2541652;23;20198;-55
2023/10/06 03:47:48;;;;;;;3.17;2.13;;;;;21.30;101391.00;;;;2525838;23;20285;-55
2023/10/06 03:48:49;;;;;;;4.17;2.43;;;;;21.30;101391.00;;;;2540991;23;20198;-55
2023/10/06 03:49:49;;;;;;;3.07;2.10;;;;;21.30;101391.00;;;;2542346;23;20202;-57
2023/10/06 03:50:49;;;;;;;3.80;2.40;;;;;21.20;101396.00;;;;2541921;23;20194;-56
2023/10/06 03:51:51;;;;;;;3.20;2.07;;;;;21.20;101388.00;;;;2529988;23;20221;-58
2023/10/06 03:52:52;;;;;;;5.25;2.13;;;;;21.20;101380.00;;;;2541594;23;20226;-57
2023/10/06 03:53:53;;;;;;;3.50;1.92;;;;;21.20;101386.00;;;;2542489;23;20194;-56
2023/10/06 03:54:58;;;;;;;3.30;2.53;;;;;21.20;101387.00;;;;2541870;23;20204;-55
2023/10/06 03:55:59;;;;;;;3.05;2.35;;;;;21.30;101401.00;;;;2542876;23;20432;-55
2023/10/06 03:57:00;;;;;;;3.03;2.13;;;;;21.30;101390.00;;;;2528367;23;20233;-56
2023/10/06 03:58:00;;;;;;;3.50;2.43;;;;;21.30;101398.00;;;;2542048;23;20218;-57
2023/10/06 03:59:00;;;;;;;3.93;2.13;;;;;21.20;101394.00;;;;2542665;23;20256;-55
2023/10/06 04:00:01;;;;;;;5.20;2.10;;;;;21.20;101387.00;;;;2542024;23;20213;-56
2023/10/06 04:01:09;;;;;;;2.80;2.07;;;;;21.20;101373.00;;;;2541362;23;20206;-56
2023/10/06 04:02:09;;;;;;;4.85;1.73;;;;;21.20;101386.00;;;;2527324;23;20234;-56
2023/10/06 04:03:10;;;;;;;3.30;2.00;;;;;21.20;101381.00;;;;2542259;23;20900;-56
2023/10/06 04:04:14;;;;;;;2.85;2.00;;;;;21.20;101378.00;;;;2542246;23;20531;-54
2023/10/06 04:05:15;;;;;;;4.00;2.15;;;;;21.30;101381.00;;;;2540001;23;20221;-56
2023/10/06 04:06:15;;;;;;;3.37;2.10;;;;;21.30;101382.00;;;;2526623;23;20699;-54
2023/10/06 04:07:16;;;;;;;3.70;2.57;;;;;21.20;101372.00;;;;2526786;23;20473;-57
2023/10/06 04:08:18;;;;;;;3.50;2.17;;;;;21.20;101376.00;;;;2542815;23;20202;-57
2023/10/06 04:09:27;;;;;;;3.70;2.10;;;;;21.20;101431.00;;;;2541907;23;20236;-57
2023/10/06 04:10:27;;;;;;;3.40;2.20;;;;;21.20;101376.00;;;;2542727;23;20526;-55
2023/10/06 04:11:31;;;;;;;2.57;2.10;;;;;21.20;101378.00;;;;2541102;23;20261;-56
2023/10/06 04:12:31;;;;;;;3.05;2.40;;;;;21.20;101385.00;;;;2526221;23;20274;-55
2023/10/06 04:13:32;;;;;;;3.33;1.93;;;;;21.20;101373.00;;;;2542568;23;20194;-56
2023/10/06 04:14:33;;;;;;;4.17;2.30;;;;;21.20;101376.00;;;;2542125;23;20202;-55
2023/10/06 04:15:33;;;;;;;3.63;2.07;;;;;21.20;101366.00;;;;2542492;23;20194;-57
2023/10/06 04:16:45;;;;;;;2.22;1.90;;;;;21.20;101368.00;;;;2542097;23;20217;-56
2023/10/06 04:17:46;;;;;;;6.25;2.40;;;;;21.20;101371.00;;;;2527010;23;20206;-55
2023/10/06 04:18:47;;;;;;;4.77;2.13;;;;;21.20;101373.00;;;;2541336;23;20707;-56
2023/10/06 04:19:48;;;;;;;3.83;2.03;;;;;21.20;101372.00;;;;2542198;23;20285;-56
2023/10/06 04:20:50;;;;;;;4.03;2.10;;;;;21.20;101366.00;;;;2542500;23;20200;-57
2023/10/06 04:21:51;;;;;;;5.68;2.15;;;;;21.20;101360.00;;;;2515205;23;20257;-57
2023/10/06 04:22:51;;;;;;;4.00;2.13;;;;;21.20;101357.00;;;;2528993;23;20229;-56
2023/10/06 04:23:52;;;;;;;5.53;2.20;;;;;21.20;101356.00;;;;2541798;23;20198;-55
2023/10/06 04:24:52;;;;;;;4.20;2.00;;;;;21.20;101356.00;;;;2541769;23;20217;-54
2023/10/06 04:25:56;;;;;;;3.40;1.80;;;;;21.20;101339.00;;;;2541362;23;20445;-56
2023/10/06 04:26:56;;;;;;;2.50;2.10;;;;;21.20;101352.00;;;;2529353;23;20202;-55
2023/10/06 04:27:56;;;;;;;3.00;1.83;;;;;21.20;101341.00;;;;2553570;23;20210;-56
2023/10/06 04:28:59;;;;;;;3.70;2.10;;;;;21.20;101344.00;;;;2552442;23;20185;-55
2023/10/06 04:29:59;;;;;;;2.58;1.90;;;;;21.20;101338.00;;;;2541522;23;20257;-55
2023/10/06 04:31:02;;;;;;;5.80;2.03;;;;;21.20;101267.00;;;;2541063;23;20213;-56
2023/10/06 04:32:03;;;;;;;4.30;3.00;;;;;21.20;101344.00;;;;2528860;23;20277;-56
2023/10/06 04:33:04;;;;;;;4.83;1.93;;;;;21.20;101359.00;;;;2541922;23;20209;-56
2023/10/06 04:34:04;;;;;;;3.03;2.10;;;;;21.20;101342.00;;;;2541808;23;20201;-56
2023/10/06 04:35:10;;;;;;;3.20;2.20;;;;;21.20;101343.00;;;;2541799;23;20297;-56
2023/10/06 04:36:12;;;;;;;4.90;2.45;;;;;21.20;101360.00;;;;2542703;23;20502;-57
2023/10/06 04:37:13;;;;;;;3.25;2.35;;;;;21.20;101333.00;;;;2532033;23;20201;-55
2023/10/06 04:38:13;;;;;;;3.10;2.07;;;;;21.20;101388.00;;;;2554036;23;20256;-56
2023/10/06 04:39:16;;;;;;;2.70;2.03;;;;;21.20;101333.00;;;;2536947;23;20195;-55
2023/10/06 04:40:18;;;;;;;3.60;2.22;;;;;21.20;101340.00;;;;2542164;23;20434;-58
2023/10/06 04:41:20;;;;;;;2.35;1.58;;;;;21.20;101348.00;;;;2542188;23;20206;-55
2023/10/06 04:42:20;;;;;;;4.88;2.35;;;;;21.20;101335.00;;;;2528244;23;20205;-57
2023/10/06 04:43:21;;;;;;;2.87;2.00;;;;;21.20;101342.00;;;;2542482;23;20202;-57
2023/10/06 04:44:21;;;;;;;3.30;2.20;;;;;21.20;101335.00;;;;2541590;23;20197;-55
2023/10/06 04:45:21;;;;;;;4.00;2.00;;;;;21.20;101342.00;;;;2542409;23;20190;-56
2023/10/06 04:46:22;;;;;;;5.40;2.20;;;;;21.20;101337.00;;;;2542338;23;20190;-57
2023/10/06 04:47:22;;;;;;;2.97;1.83;;;;;21.20;101335.00;;;;2528102;23;20198;-58
2023/10/06 04:48:22;;;;;;;3.10;2.00;;;;;21.20;101333.00;;;;2542389;23;20272;-58
2023/10/06 04:49:23;;;;;;;2.60;1.93;;;;;21.20;101334.00;;;;2542030;23;20198;-57
2023/10/06 04:50:23;;;;;;;3.40;2.03;;;;;20.60;101328.00;;;;2542308;23;20202;-57
2023/10/06 04:51:26;;;;;;;3.40;2.03;;;;;21.20;101328.00;;;;2541143;23;20194;-55
2023/10/06 04:52:27;;;;;;;3.80;1.73;;;;;21.20;101324.00;;;;2526521;23;20210;-58
2023/10/06 04:53:27;;;;;;;4.07;1.83;;;;;21.20;101328.00;;;;2542380;23;20182;-55
2023/10/06 04:54:28;;;;;;;3.10;2.10;;;;;21.20;101324.00;;;;2542213;23;20505;-56
2023/10/06 04:55:31;;;;;;;3.30;1.70;;;;;21.20;101325.00;;;;2542514;23;20734;-56
2023/10/06 04:56:32;;;;;;;4.68;2.50;;;;;21.20;101321.00;;;;2541653;23;20825;-57
2023/10/06 04:57:32;;;;;;;4.33;2.70;;;;;21.20;101326.00;;;;2528584;23;20198;-57
2023/10/06 04:58:38;;;;;;;2.78;2.08;;;;;21.20;101333.00;;;;2542136;23;20438;-57
2023/10/06 04:59:40;;;;;;;3.03;1.75;;;;;21.20;101337.00;;;;2542164;23;20206;-56
2023/10/06 05:00:41;;;;;;;3.47;1.92;;;;;21.20;101306.00;;;;2542138;23;20206;-56
2023/10/06 05:01:41;;;;;;;3.67;2.30;;;;;21.20;101322.00;;;;2542084;23;20194;-58
2023/10/06 05:02:47;;;;;;;4.40;2.38;;;;;21.20;101326.00;;;;2526333;23;20552;-55
2023/10/06 05:03:47;;;;;;;2.33;2.00;;;;;21.00;101333.00;;;;2541087;23;20661;-58
2023/10/06 05:04:47;;;;;;;2.70;2.10;;;;;21.20;101326.00;;;;2542365;23;20198;-56
2023/10/06 05:05:50;;;;;;;3.87;2.13;;;;;21.20;101322.00;;;;2540948;23;20202;-58
2023/10/06 05:06:53;;;;;;;2.53;1.95;;;;;21.20;101318.00;;;;2528762;23;20214;-55
2023/10/06 05:07:53;;;;;;;3.90;2.20;;;;;21.20;101328.00;;;;2540887;23;20214;-57
2023/10/06 05:08:54;;;;;;;3.23;2.10;;;;;21.20;101200.00;;;;2541755;23;20537;-56
2023/10/06 05:09:55;;;;;;;2.60;2.17;;;;;21.20;101330.00;;;;2542652;23;20541;-55
2023/10/06 05:10:56;;;;;;;3.13;1.70;;;;;21.20;101328.00;;;;2540370;23;20285;-58
2023/10/06 05:11:57;;;;;;;3.03;1.70;;;;;21.20;101282.00;;;;2527472;23;20194;-57
2023/10/06 05:12:59;;;;;;;3.90;2.30;;;;;21.20;101327.00;;;;2540619;23;20209;-56
2023/10/06 05:13:59;;;;;;;2.83;2.10;;;;;21.20;101325.00;;;;2542452;23;20938;-57
2023/10/06 05:15:00;;;;;;;3.37;2.17;;;;;21.20;101315.00;;;;2542724;23;20190;-56
2023/10/06 05:16:01;;;;;;;4.77;1.90;;;;;21.20;101312.00;;;;2542207;23;20209;-58
2023/10/06 05:17:01;;;;;;;2.67;1.80;;;;;21.20;101313.00;;;;2528186;23;20277;-56
2023/10/06 05:18:03;;;;;;;3.10;1.93;;;;;21.20;101248.00;;;;2541692;23;20590;-58